sensor_id;sensor_type;location;lat;lon;timestamp;temperature;humidity
17986;DHT22;9118;48.122;11.546;2023-07-09T00:01:44;22.50;99.90
17986;DHT22;9118;48.122;11.546;2023-07-09T00:16:28;22.30;99.90
17986;DHT22;9118;48.122;11.546;2023-07-09T00:18:56;22.20;99.90
17986;DHT22;9118;48.122;11.546;2023-07-09T00:21:23;22.30;99.90
17986;DHT22;9118;48.122;11.546;2023-07-09T00:23:50;22.40;99.90
17986;DHT22;9118;48.122;11.546;2023-07-09T00:26:18;22.20;99.90
17986;DHT22;9118;48.122;11.546;2023-07-09T00:31:16;22.10;99.90
17986;DHT22;9118;48.122;11.546;2023-07-09T00:33:44;22.10;99.90
17986;DHT22;9118;48.122;11.546;2023-07-09T00:36:16;22.20;99.90
17986;DHT22;9118;48.122;11.546;2023-07-09T00:38:44;22.50;99.90
17986;DHT22;9118;48.122;11.546;2023-07-09T00:41:15;22.20;99.90
17986;DHT22;9118;48.122;11.546;2023-07-09T00:43:45;22.40;99.90
17986;DHT22;9118;48.122;11.546;2023-07-09T00:49:01;22.10;99.90
17986;DHT22;9118;48.122;11.546;2023-07-09T00:51:33;22.10;99.90
17986;DHT22;9118;48.122;11.546;2023-07-09T00:54:06;21.90;99.90
17986;DHT22;9118;48.122;11.546;2023-07-09T00:56:39;21.90;99.90
17986;DHT22;9118;48.122;11.546;2023-07-09T00:59:11;21.90;99.90
17986;DHT22;9118;48.122;11.546;2023-07-09T01:04:08;21.90;99.90
17986;DHT22;9118;48.122;11.546;2023-07-09T01:06:39;22.10;99.90
17986;DHT22;9118;48.122;11.546;2023-07-09T01:14:06;21.90;99.90
17986;DHT22;9118;48.122;11.546;2023-07-09T01:16:35;21.70;99.90
17986;DHT22;9118;48.122;11.546;2023-07-09T01:19:03;22.10;99.90
17986;DHT22;9118;48.122;11.546;2023-07-09T01:21:32;22.00;99.90
17986;DHT22;9118;48.122;11.546;2023-07-09T01:26:27;21.90;99.90
17986;DHT22;9118;48.122;11.546;2023-07-09T01:28:56;22.00;99.90
17986;DHT22;9118;48.122;11.546;2023-07-09T01:36:20;21.80;99.90
17986;DHT22;9118;48.122;11.546;2023-07-09T01:38:50;21.80;99.90
17986;DHT22;9118;48.122;11.546;2023-07-09T01:48:41;21.60;99.90
17986;DHT22;9118;48.122;11.546;2023-07-09T01:53:36;21.70;99.90
17986;DHT22;9118;48.122;11.546;2023-07-09T01:56:05;21.70;99.90
17986;DHT22;9118;48.122;11.546;2023-07-09T01:58:33;21.60;99.90
17986;DHT22;9118;48.122;11.546;2023-07-09T02:01:00;22.00;99.90
17986;DHT22;9118;48.122;11.546;2023-07-09T02:13:19;21.60;99.90
17986;DHT22;9118;48.122;11.546;2023-07-09T02:18:13;21.60;99.90
17986;DHT22;9118;48.122;11.546;2023-07-09T02:23:08;21.50;99.90
17986;DHT22;9118;48.122;11.546;2023-07-09T02:25:35;21.70;99.90
17986;DHT22;9118;48.122;11.546;2023-07-09T02:30:31;21.60;99.90
17986;DHT22;9118;48.122;11.546;2023-07-09T02:42:47;21.50;99.90
17986;DHT22;9118;48.122;11.546;2023-07-09T02:47:42;21.50;99.90
17986;DHT22;9118;48.122;11.546;2023-07-09T02:50:09;21.50;99.90
17986;DHT22;9118;48.122;11.546;2023-07-09T02:55:04;22.10;99.90
17986;DHT22;9118;48.122;11.546;2023-07-09T02:59:58;21.40;99.90
17986;DHT22;9118;48.122;11.546;2023-07-09T03:04:54;21.50;99.90
17986;DHT22;9118;48.122;11.546;2023-07-09T03:09:48;21.50;99.90
17986;DHT22;9118;48.122;11.546;2023-07-09T03:14:42;21.40;99.90
17986;DHT22;9118;48.122;11.546;2023-07-09T03:22:05;21.50;99.90
17986;DHT22;9118;48.122;11.546;2023-07-09T03:29:27;21.20;99.90
17986;DHT22;9118;48.122;11.546;2023-07-09T03:34:21;21.30;99.90
17986;DHT22;9118;48.122;11.546;2023-07-09T03:39:17;21.30;99.90
17986;DHT22;9118;48.122;11.546;2023-07-09T04:03:51;21.20;99.90
17986;DHT22;9118;48.122;11.546;2023-07-09T04:13:41;21.30;99.90
17986;DHT22;9118;48.122;11.546;2023-07-09T04:23:29;21.30;99.90
17986;DHT22;9118;48.122;11.546;2023-07-09T04:30:52;21.30;99.90
17986;DHT22;9118;48.122;11.546;2023-07-09T04:33:20;21.40;99.90
17986;DHT22;9118;48.122;11.546;2023-07-09T04:38:15;21.40;99.90
17986;DHT22;9118;48.122;11.546;2023-07-09T04:45:36;21.40;99.90
17986;DHT22;9118;48.122;11.546;2023-07-09T04:48:05;21.50;99.90
17986;DHT22;9118;48.122;11.546;2023-07-09T04:50:33;21.70;99.90
17986;DHT22;9118;48.122;11.546;2023-07-09T04:55:27;21.50;99.90
17986;DHT22;9118;48.122;11.546;2023-07-09T04:57:54;21.40;99.90
17986;DHT22;9118;48.122;11.546;2023-07-09T05:00:21;21.50;99.90
17986;DHT22;9118;48.122;11.546;2023-07-09T05:05:17;21.50;99.90
17986;DHT22;9118;48.122;11.546;2023-07-09T05:10:12;21.70;99.90
17986;DHT22;9118;48.122;11.546;2023-07-09T05:12:47;21.80;99.90
17986;DHT22;9118;48.122;11.546;2023-07-09T05:22:38;22.00;99.90
17986;DHT22;9118;48.122;11.546;2023-07-09T05:39:50;22.40;99.90
17986;DHT22;9118;48.122;11.546;2023-07-09T05:54:34;22.70;99.90
17986;DHT22;9118;48.122;11.546;2023-07-09T05:57:02;22.80;99.90
17986;DHT22;9118;48.122;11.546;2023-07-09T06:09:20;23.00;99.90
17986;DHT22;9118;48.122;11.546;2023-07-09T06:11:47;22.70;99.90
17986;DHT22;9118;48.122;11.546;2023-07-09T06:14:15;23.10;99.90
17986;DHT22;9118;48.122;11.546;2023-07-09T06:26:33;23.30;99.90
17986;DHT22;9118;48.122;11.546;2023-07-09T06:29:00;23.60;99.90
17986;DHT22;9118;48.122;11.546;2023-07-09T06:33:56;23.60;99.90
17986;DHT22;9118;48.122;11.546;2023-07-09T06:36:23;23.50;99.90
17986;DHT22;9118;48.122;11.546;2023-07-09T06:38:50;23.90;99.90
17986;DHT22;9118;48.122;11.546;2023-07-09T06:41:17;23.70;99.90
17986;DHT22;9118;48.122;11.546;2023-07-09T06:43:44;23.50;99.90
17986;DHT22;9118;48.122;11.546;2023-07-09T06:46:18;23.90;99.90
17986;DHT22;9118;48.122;11.546;2023-07-09T06:48:46;23.80;99.90
17986;DHT22;9118;48.122;11.546;2023-07-09T06:53:41;24.00;99.90
17986;DHT22;9118;48.122;11.546;2023-07-09T06:56:13;24.20;99.90
17986;DHT22;9118;48.122;11.546;2023-07-09T06:58:40;24.30;99.90
17986;DHT22;9118;48.122;11.546;2023-07-09T07:06:04;24.40;99.90
17986;DHT22;9118;48.122;11.546;2023-07-09T07:11:01;24.50;99.90
17986;DHT22;9118;48.122;11.546;2023-07-09T07:13:30;24.70;99.90
17986;DHT22;9118;48.122;11.546;2023-07-09T07:18:25;24.30;99.90
17986;DHT22;9118;48.122;11.546;2023-07-09T07:20:52;24.80;99.90
17986;DHT22;9118;48.122;11.546;2023-07-09T07:23:20;24.80;99.90
17986;DHT22;9118;48.122;11.546;2023-07-09T07:28:15;24.90;99.90
17986;DHT22;9118;48.122;11.546;2023-07-09T07:33:09;25.10;99.90
17986;DHT22;9118;48.122;11.546;2023-07-09T07:35:37;25.20;99.90
17986;DHT22;9118;48.122;11.546;2023-07-09T07:38:03;25.10;99.90
17986;DHT22;9118;48.122;11.546;2023-07-09T07:40:32;25.30;99.90
17986;DHT22;9118;48.122;11.546;2023-07-09T07:42:59;25.50;99.90
17986;DHT22;9118;48.122;11.546;2023-07-09T07:45:26;25.30;99.90
17986;DHT22;9118;48.122;11.546;2023-07-09T07:47:52;25.60;99.90
17986;DHT22;9118;48.122;11.546;2023-07-09T07:52:46;25.60;99.90
17986;DHT22;9118;48.122;11.546;2023-07-09T07:55:13;25.90;99.90
17986;DHT22;9118;48.122;11.546;2023-07-09T07:57:42;25.80;99.90
17986;DHT22;9118;48.122;11.546;2023-07-09T08:00:10;25.70;99.90
17986;DHT22;9118;48.122;11.546;2023-07-09T08:02:37;26.10;99.90
17986;DHT22;9118;48.122;11.546;2023-07-09T08:05:05;26.30;99.90
17986;DHT22;9118;48.122;11.546;2023-07-09T08:12:26;26.00;99.90
17986;DHT22;9118;48.122;11.546;2023-07-09T08:14:54;26.10;99.90
17986;DHT22;9118;48.122;11.546;2023-07-09T08:17:21;26.40;99.90
17986;DHT22;9118;48.122;11.546;2023-07-09T08:19:49;26.40;99.90
17986;DHT22;9118;48.122;11.546;2023-07-09T08:22:17;26.60;99.90
17986;DHT22;9118;48.122;11.546;2023-07-09T08:24:46;26.50;99.90
17986;DHT22;9118;48.122;11.546;2023-07-09T08:27:13;26.50;99.90
17986;DHT22;9118;48.122;11.546;2023-07-09T08:29:40;26.80;99.90
17986;DHT22;9118;48.122;11.546;2023-07-09T08:32:10;26.60;99.90
17986;DHT22;9118;48.122;11.546;2023-07-09T08:34:38;26.80;99.90
17986;DHT22;9118;48.122;11.546;2023-07-09T08:37:05;27.00;99.90
17986;DHT22;9118;48.122;11.546;2023-07-09T08:39:32;27.10;99.90
17986;DHT22;9118;48.122;11.546;2023-07-09T08:42:02;27.10;99.90
17986;DHT22;9118;48.122;11.546;2023-07-09T08:44:44;27.30;99.90
17986;DHT22;9118;48.122;11.546;2023-07-09T08:47:18;27.10;99.90
17986;DHT22;9118;48.122;11.546;2023-07-09T08:49:53;26.70;99.90
17986;DHT22;9118;48.122;11.546;2023-07-09T08:52:27;27.20;99.90
17986;DHT22;9118;48.122;11.546;2023-07-09T08:54:56;27.30;99.90
17986;DHT22;9118;48.122;11.546;2023-07-09T08:57:29;27.40;99.90
17986;DHT22;9118;48.122;11.546;2023-07-09T09:00:02;27.50;99.90
17986;DHT22;9118;48.122;11.546;2023-07-09T09:02:44;27.20;99.90
17986;DHT22;9118;48.122;11.546;2023-07-09T09:05:14;28.00;99.90
17986;DHT22;9118;48.122;11.546;2023-07-09T09:07:43;27.40;99.90
17986;DHT22;9118;48.122;11.546;2023-07-09T09:10:14;27.90;99.90
17986;DHT22;9118;48.122;11.546;2023-07-09T09:12:56;27.60;99.90
17986;DHT22;9118;48.122;11.546;2023-07-09T09:15:26;27.90;99.90
17986;DHT22;9118;48.122;11.546;2023-07-09T09:18:09;28.00;99.90
17986;DHT22;9118;48.122;11.546;2023-07-09T09:20:37;28.00;99.90
17986;DHT22;9118;48.122;11.546;2023-07-09T09:23:13;28.20;99.90
17986;DHT22;9118;48.122;11.546;2023-07-09T09:25:42;28.50;99.90
17986;DHT22;9118;48.122;11.546;2023-07-09T09:30:39;28.10;99.90
17986;DHT22;9118;48.122;11.546;2023-07-09T09:33:09;28.10;99.90
17986;DHT22;9118;48.122;11.546;2023-07-09T09:35:38;28.10;99.90
17986;DHT22;9118;48.122;11.546;2023-07-09T09:38:11;28.10;99.90
17986;DHT22;9118;48.122;11.546;2023-07-09T09:43:12;28.10;99.20
17986;DHT22;9118;48.122;11.546;2023-07-09T09:45:41;28.40;99.90
17986;DHT22;9118;48.122;11.546;2023-07-09T09:48:19;28.50;98.50
17986;DHT22;9118;48.122;11.546;2023-07-09T09:50:47;28.50;99.90
17986;DHT22;9118;48.122;11.546;2023-07-09T09:53:20;28.70;99.90
17986;DHT22;9118;48.122;11.546;2023-07-09T09:55:48;28.10;99.90
17986;DHT22;9118;48.122;11.546;2023-07-09T09:58:16;28.40;99.90
17986;DHT22;9118;48.122;11.546;2023-07-09T10:00:49;28.70;99.70
17986;DHT22;9118;48.122;11.546;2023-07-09T10:03:19;28.90;99.40
17986;DHT22;9118;48.122;11.546;2023-07-09T10:05:50;29.00;99.60
17986;DHT22;9118;48.122;11.546;2023-07-09T10:08:25;29.00;99.40
17986;DHT22;9118;48.122;11.546;2023-07-09T10:10:57;29.00;99.30
17986;DHT22;9118;48.122;11.546;2023-07-09T10:13:30;28.90;98.80
17986;DHT22;9118;48.122;11.546;2023-07-09T10:16:05;29.10;99.20
17986;DHT22;9118;48.122;11.546;2023-07-09T10:18:42;28.80;98.40
17986;DHT22;9118;48.122;11.546;2023-07-09T10:21:14;29.10;98.60
17986;DHT22;9118;48.122;11.546;2023-07-09T10:23:49;29.10;98.60
17986;DHT22;9118;48.122;11.546;2023-07-09T10:26:24;29.30;98.00
17986;DHT22;9118;48.122;11.546;2023-07-09T10:29:20;29.40;96.90
17986;DHT22;9118;48.122;11.546;2023-07-09T10:31:52;29.50;94.90
17986;DHT22;9118;48.122;11.546;2023-07-09T10:34:29;29.70;96.90
17986;DHT22;9118;48.122;11.546;2023-07-09T10:37:23;29.50;96.80
17986;DHT22;9118;48.122;11.546;2023-07-09T10:39:53;29.70;97.00
17986;DHT22;9118;48.122;11.546;2023-07-09T10:42:26;29.30;97.10
17986;DHT22;9118;48.122;11.546;2023-07-09T10:44:56;29.90;97.80
17986;DHT22;9118;48.122;11.546;2023-07-09T10:47:29;29.80;97.10
17986;DHT22;9118;48.122;11.546;2023-07-09T10:49:59;29.90;97.50
17986;DHT22;9118;48.122;11.546;2023-07-09T10:52:31;29.90;97.60
17986;DHT22;9118;48.122;11.546;2023-07-09T10:55:04;30.00;97.70
17986;DHT22;9118;48.122;11.546;2023-07-09T10:57:41;30.00;97.20
17986;DHT22;9118;48.122;11.546;2023-07-09T11:00:15;29.90;96.70
17986;DHT22;9118;48.122;11.546;2023-07-09T11:02:44;30.00;97.00
17986;DHT22;9118;48.122;11.546;2023-07-09T11:07:46;30.00;93.60
17986;DHT22;9118;48.122;11.546;2023-07-09T11:10:24;30.10;96.50
17986;DHT22;9118;48.122;11.546;2023-07-09T11:12:57;30.00;95.80
17986;DHT22;9118;48.122;11.546;2023-07-09T11:15:30;29.80;95.80
17986;DHT22;9118;48.122;11.546;2023-07-09T11:17:58;30.20;96.10
17986;DHT22;9118;48.122;11.546;2023-07-09T11:20:32;30.20;96.30
17986;DHT22;9118;48.122;11.546;2023-07-09T11:23:02;30.20;96.30
17986;DHT22;9118;48.122;11.546;2023-07-09T11:25:40;30.00;96.00
17986;DHT22;9118;48.122;11.546;2023-07-09T11:28:08;30.20;96.40
17986;DHT22;9118;48.122;11.546;2023-07-09T11:30:46;29.90;96.20
17986;DHT22;9118;48.122;11.546;2023-07-09T11:33:18;30.30;96.30
17986;DHT22;9118;48.122;11.546;2023-07-09T11:35:49;30.00;96.20
17986;DHT22;9118;48.122;11.546;2023-07-09T11:38:18;30.20;95.70
17986;DHT22;9118;48.122;11.546;2023-07-09T11:40:48;30.00;96.20
17986;DHT22;9118;48.122;11.546;2023-07-09T11:43:28;30.20;96.00
17986;DHT22;9118;48.122;11.546;2023-07-09T11:45:58;30.30;96.00
17986;DHT22;9118;48.122;11.546;2023-07-09T11:48:30;30.30;96.40
17986;DHT22;9118;48.122;11.546;2023-07-09T11:51:05;30.60;96.30
17986;DHT22;9118;48.122;11.546;2023-07-09T11:53:38;30.70;95.80
17986;DHT22;9118;48.122;11.546;2023-07-09T11:56:09;30.90;95.80
17986;DHT22;9118;48.122;11.546;2023-07-09T11:58:36;31.20;95.80
17986;DHT22;9118;48.122;11.546;2023-07-09T12:01:12;31.20;95.80
17986;DHT22;9118;48.122;11.546;2023-07-09T12:03:44;31.40;95.60
17986;DHT22;9118;48.122;11.546;2023-07-09T12:06:18;31.50;95.70
17986;DHT22;9118;48.122;11.546;2023-07-09T12:08:46;31.60;95.40
17986;DHT22;9118;48.122;11.546;2023-07-09T12:11:24;31.60;94.90
17986;DHT22;9118;48.122;11.546;2023-07-09T12:13:52;31.50;93.60
17986;DHT22;9118;48.122;11.546;2023-07-09T12:16:25;31.50;94.50
17986;DHT22;9118;48.122;11.546;2023-07-09T12:18:52;31.80;94.40
17986;DHT22;9118;48.122;11.546;2023-07-09T12:21:22;31.50;94.40
17986;DHT22;9118;48.122;11.546;2023-07-09T12:23:52;31.80;94.80
17986;DHT22;9118;48.122;11.546;2023-07-09T12:28:50;31.70;92.50
17986;DHT22;9118;48.122;11.546;2023-07-09T12:31:20;31.60;94.00
17986;DHT22;9118;48.122;11.546;2023-07-09T12:33:49;31.60;93.60
17986;DHT22;9118;48.122;11.546;2023-07-09T12:36:17;31.30;94.20
17986;DHT22;9118;48.122;11.546;2023-07-09T12:38:49;31.30;93.60
17986;DHT22;9118;48.122;11.546;2023-07-09T12:41:19;31.70;94.20
17986;DHT22;9118;48.122;11.546;2023-07-09T12:43:47;31.30;94.50
17986;DHT22;9118;48.122;11.546;2023-07-09T12:46:15;31.50;94.60
17986;DHT22;9118;48.122;11.546;2023-07-09T12:48:44;31.70;94.20
17986;DHT22;9118;48.122;11.546;2023-07-09T12:51:16;32.00;93.50
17986;DHT22;9118;48.122;11.546;2023-07-09T12:53:47;32.10;94.00
17986;DHT22;9118;48.122;11.546;2023-07-09T12:56:17;32.10;93.50
17986;DHT22;9118;48.122;11.546;2023-07-09T12:58:44;32.00;94.30
17986;DHT22;9118;48.122;11.546;2023-07-09T13:01:15;31.80;94.00
17986;DHT22;9118;48.122;11.546;2023-07-09T13:03:53;32.10;94.10
17986;DHT22;9118;48.122;11.546;2023-07-09T13:06:28;31.60;93.60
17986;DHT22;9118;48.122;11.546;2023-07-09T13:08:58;31.80;93.60
17986;DHT22;9118;48.122;11.546;2023-07-09T13:11:33;32.10;93.80
17986;DHT22;9118;48.122;11.546;2023-07-09T13:14:03;32.10;93.90
17986;DHT22;9118;48.122;11.546;2023-07-09T13:16:30;32.40;93.60
17986;DHT22;9118;48.122;11.546;2023-07-09T13:18:57;32.40;94.30
17986;DHT22;9118;48.122;11.546;2023-07-09T13:21:24;32.40;93.80
17986;DHT22;9118;48.122;11.546;2023-07-09T13:23:52;32.50;93.30
17986;DHT22;9118;48.122;11.546;2023-07-09T13:26:21;32.50;93.60
17986;DHT22;9118;48.122;11.546;2023-07-09T13:28:48;32.20;93.20
17986;DHT22;9118;48.122;11.546;2023-07-09T13:31:18;32.70;93.30
17986;DHT22;9118;48.122;11.546;2023-07-09T13:33:52;32.70;92.70
17986;DHT22;9118;48.122;11.546;2023-07-09T13:36:21;31.90;92.70
17986;DHT22;9118;48.122;11.546;2023-07-09T13:38:48;32.80;92.40
17986;DHT22;9118;48.122;11.546;2023-07-09T13:41:16;32.90;92.30
17986;DHT22;9118;48.122;11.546;2023-07-09T13:43:47;32.90;91.40
17986;DHT22;9118;48.122;11.546;2023-07-09T13:46:14;33.40;92.40
17986;DHT22;9118;48.122;11.546;2023-07-09T13:48:43;33.70;91.80
17986;DHT22;9118;48.122;11.546;2023-07-09T13:51:15;33.80;91.50
17986;DHT22;9118;48.122;11.546;2023-07-09T13:56:09;34.60;84.50
17986;DHT22;9118;48.122;11.546;2023-07-09T13:58:36;34.90;89.10
17986;DHT22;9118;48.122;11.546;2023-07-09T14:01:11;35.20;89.60
17986;DHT22;9118;48.122;11.546;2023-07-09T14:03:39;36.00;87.90
17986;DHT22;9118;48.122;11.546;2023-07-09T14:06:09;36.50;87.00
17986;DHT22;9118;48.122;11.546;2023-07-09T14:08:36;38.20;85.40
17986;DHT22;9118;48.122;11.546;2023-07-09T14:11:02;40.10;81.80
17986;DHT22;9118;48.122;11.546;2023-07-09T14:16:00;43.00;68.50
17986;DHT22;9118;48.122;11.546;2023-07-09T14:18:29;44.20;72.50
17986;DHT22;9118;48.122;11.546;2023-07-09T14:20:56;44.80;69.90
17986;DHT22;9118;48.122;11.546;2023-07-09T14:23:24;45.40;69.40
17986;DHT22;9118;48.122;11.546;2023-07-09T14:25:51;46.00;68.70
17986;DHT22;9118;48.122;11.546;2023-07-09T14:28:20;46.50;68.40
17986;DHT22;9118;48.122;11.546;2023-07-09T14:30:49;46.50;66.50
17986;DHT22;9118;48.122;11.546;2023-07-09T14:33:18;46.60;64.50
17986;DHT22;9118;48.122;11.546;2023-07-09T14:35:47;47.30;60.70
17986;DHT22;9118;48.122;11.546;2023-07-09T14:38:20;47.30;63.90
17986;DHT22;9118;48.122;11.546;2023-07-09T14:40:49;47.80;63.10
17986;DHT22;9118;48.122;11.546;2023-07-09T14:43:17;48.00;61.90
17986;DHT22;9118;48.122;11.546;2023-07-09T14:45:44;48.50;62.50
17986;DHT22;9118;48.122;11.546;2023-07-09T14:48:12;48.70;62.10
17986;DHT22;9118;48.122;11.546;2023-07-09T14:50:41;48.60;60.70
17986;DHT22;9118;48.122;11.546;2023-07-09T14:53:17;49.00;60.00
17986;DHT22;9118;48.122;11.546;2023-07-09T14:55:46;49.10;60.30
17986;DHT22;9118;48.122;11.546;2023-07-09T14:58:15;48.60;60.00
17986;DHT22;9118;48.122;11.546;2023-07-09T15:00:43;47.70;62.20
17986;DHT22;9118;48.122;11.546;2023-07-09T15:03:19;46.30;63.40
17986;DHT22;9118;48.122;11.546;2023-07-09T15:08:17;43.90;60.70
17986;DHT22;9118;48.122;11.546;2023-07-09T15:10:45;43.90;66.60
17986;DHT22;9118;48.122;11.546;2023-07-09T15:13:17;44.60;65.70
17986;DHT22;9118;48.122;11.546;2023-07-09T15:15:45;45.50;64.50
17986;DHT22;9118;48.122;11.546;2023-07-09T15:18:15;45.70;63.70
17986;DHT22;9118;48.122;11.546;2023-07-09T15:20:47;46.20;62.70
17986;DHT22;9118;48.122;11.546;2023-07-09T15:23:16;47.60;62.50
17986;DHT22;9118;48.122;11.546;2023-07-09T15:25:43;48.10;61.10
17986;DHT22;9118;48.122;11.546;2023-07-09T15:28:10;48.70;61.50
17986;DHT22;9118;48.122;11.546;2023-07-09T15:30:38;48.90;60.60
17986;DHT22;9118;48.122;11.546;2023-07-09T15:33:08;48.20;61.40
17986;DHT22;9118;48.122;11.546;2023-07-09T15:35:36;47.10;62.50
17986;DHT22;9118;48.122;11.546;2023-07-09T15:38:20;46.00;63.10
17986;DHT22;9118;48.122;11.546;2023-07-09T15:40:48;44.70;64.50
17986;DHT22;9118;48.122;11.546;2023-07-09T15:43:16;43.80;65.20
17986;DHT22;9118;48.122;11.546;2023-07-09T15:45:45;43.20;66.50
17986;DHT22;9118;48.122;11.546;2023-07-09T15:48:20;42.40;67.10
17986;DHT22;9118;48.122;11.546;2023-07-09T15:50:48;42.10;67.60
17986;DHT22;9118;48.122;11.546;2023-07-09T15:53:15;41.80;68.30
17986;DHT22;9118;48.122;11.546;2023-07-09T15:55:43;41.20;68.60
17986;DHT22;9118;48.122;11.546;2023-07-09T15:58:16;40.80;69.30
17986;DHT22;9118;48.122;11.546;2023-07-09T16:00:45;40.80;70.50
17986;DHT22;9118;48.122;11.546;2023-07-09T16:03:12;40.20;71.40
17986;DHT22;9118;48.122;11.546;2023-07-09T16:05:39;39.70;71.90
17986;DHT22;9118;48.122;11.546;2023-07-09T16:08:06;39.50;72.20
17986;DHT22;9118;48.122;11.546;2023-07-09T16:10:34;38.60;71.40
17986;DHT22;9118;48.122;11.546;2023-07-09T16:13:02;39.20;73.60
17986;DHT22;9118;48.122;11.546;2023-07-09T16:15:29;38.50;73.40
17986;DHT22;9118;48.122;11.546;2023-07-09T16:17:56;38.80;74.00
17986;DHT22;9118;48.122;11.546;2023-07-09T16:20:25;38.50;74.40
17986;DHT22;9118;48.122;11.546;2023-07-09T16:22:55;38.20;74.00
17986;DHT22;9118;48.122;11.546;2023-07-09T16:25:26;37.90;73.90
17986;DHT22;9118;48.122;11.546;2023-07-09T16:27:54;37.40;74.50
17986;DHT22;9118;48.122;11.546;2023-07-09T16:30:24;37.40;75.20
17986;DHT22;9118;48.122;11.546;2023-07-09T16:32:52;37.20;74.60
17986;DHT22;9118;48.122;11.546;2023-07-09T16:35:20;37.30;75.00
17986;DHT22;9118;48.122;11.546;2023-07-09T16:37:49;37.40;75.60
17986;DHT22;9118;48.122;11.546;2023-07-09T16:40:19;37.20;75.40
17986;DHT22;9118;48.122;11.546;2023-07-09T16:42:48;37.10;75.40
17986;DHT22;9118;48.122;11.546;2023-07-09T16:45:17;37.10;69.80
17986;DHT22;9118;48.122;11.546;2023-07-09T16:47:47;36.70;75.20
17986;DHT22;9118;48.122;11.546;2023-07-09T16:50:17;36.70;76.60
17986;DHT22;9118;48.122;11.546;2023-07-09T16:52:44;36.20;74.60
17986;DHT22;9118;48.122;11.546;2023-07-09T16:55:14;37.00;76.70
17986;DHT22;9118;48.122;11.546;2023-07-09T16:57:42;36.20;75.40
17986;DHT22;9118;48.122;11.546;2023-07-09T17:00:25;36.00;76.30
17986;DHT22;9118;48.122;11.546;2023-07-09T17:02:56;36.20;76.30
17986;DHT22;9118;48.122;11.546;2023-07-09T17:05:24;35.80;76.90
17986;DHT22;9118;48.122;11.546;2023-07-09T17:07:52;36.10;77.70
17986;DHT22;9118;48.122;11.546;2023-07-09T17:10:19;36.00;77.40
17986;DHT22;9118;48.122;11.546;2023-07-09T17:12:50;36.00;65.60
17986;DHT22;9118;48.122;11.546;2023-07-09T17:15:21;36.10;66.90
17986;DHT22;9118;48.122;11.546;2023-07-09T17:17:51;36.50;71.30
17986;DHT22;9118;48.122;11.546;2023-07-09T17:20:21;35.50;74.00
17986;DHT22;9118;48.122;11.546;2023-07-09T17:22:50;36.10;74.30
17986;DHT22;9118;48.122;11.546;2023-07-09T17:25:28;36.90;72.20
17986;DHT22;9118;48.122;11.546;2023-07-09T17:30:24;41.10;61.30
17986;DHT22;9118;48.122;11.546;2023-07-09T17:32:53;40.20;68.50
17986;DHT22;9118;48.122;11.546;2023-07-09T17:35:21;38.90;71.10
17986;DHT22;9118;48.122;11.546;2023-07-09T17:37:54;37.80;70.50
17986;DHT22;9118;48.122;11.546;2023-07-09T17:40:26;37.20;72.90
17986;DHT22;9118;48.122;11.546;2023-07-09T17:42:53;36.60;73.60
17986;DHT22;9118;48.122;11.546;2023-07-09T17:45:21;35.90;74.00
17986;DHT22;9118;48.122;11.546;2023-07-09T17:47:49;35.60;75.20
17986;DHT22;9118;48.122;11.546;2023-07-09T17:50:17;35.00;73.70
17986;DHT22;9118;48.122;11.546;2023-07-09T17:52:50;34.70;72.70
17986;DHT22;9118;48.122;11.546;2023-07-09T17:55:17;34.50;76.10
17986;DHT22;9118;48.122;11.546;2023-07-09T17:57:46;34.30;74.60
17986;DHT22;9118;48.122;11.546;2023-07-09T18:00:22;34.00;75.50
17986;DHT22;9118;48.122;11.546;2023-07-09T18:02:55;33.90;75.80
17986;DHT22;9118;48.122;11.546;2023-07-09T18:05:26;33.60;76.60
17986;DHT22;9118;48.122;11.546;2023-07-09T18:07:55;33.50;77.10
17986;DHT22;9118;48.122;11.546;2023-07-09T18:10:24;33.30;77.60
17986;DHT22;9118;48.122;11.546;2023-07-09T18:12:52;33.20;77.80
17986;DHT22;9118;48.122;11.546;2023-07-09T18:15:24;33.20;78.30
17986;DHT22;9118;48.122;11.546;2023-07-09T18:17:52;33.10;78.90
17986;DHT22;9118;48.122;11.546;2023-07-09T18:20:21;33.20;79.00
17986;DHT22;9118;48.122;11.546;2023-07-09T18:22:50;32.70;79.20
17986;DHT22;9118;48.122;11.546;2023-07-09T18:25:19;32.40;78.30
17986;DHT22;9118;48.122;11.546;2023-07-09T18:27:49;32.50;79.10
17986;DHT22;9118;48.122;11.546;2023-07-09T18:30:18;32.40;80.20
17986;DHT22;9118;48.122;11.546;2023-07-09T18:32:48;32.00;79.40
17986;DHT22;9118;48.122;11.546;2023-07-09T18:35:23;32.30;81.10
17986;DHT22;9118;48.122;11.546;2023-07-09T18:37:53;32.00;81.30
17986;DHT22;9118;48.122;11.546;2023-07-09T18:40:25;31.90;81.70
17986;DHT22;9118;48.122;11.546;2023-07-09T18:42:52;31.90;82.10
17986;DHT22;9118;48.122;11.546;2023-07-09T18:45:21;31.60;81.50
17986;DHT22;9118;48.122;11.546;2023-07-09T18:47:48;31.50;81.60
17986;DHT22;9118;48.122;11.546;2023-07-09T18:50:22;31.30;82.60
17986;DHT22;9118;48.122;11.546;2023-07-09T18:52:52;31.40;84.40
17986;DHT22;9118;48.122;11.546;2023-07-09T18:55:21;31.30;84.80
17986;DHT22;9118;48.122;11.546;2023-07-09T18:57:50;30.90;85.20
17986;DHT22;9118;48.122;11.546;2023-07-09T19:00:18;30.20;85.40
17986;DHT22;9118;48.122;11.546;2023-07-09T19:02:47;30.80;86.40
17986;DHT22;9118;48.122;11.546;2023-07-09T19:05:19;30.50;87.20
17986;DHT22;9118;48.122;11.546;2023-07-09T19:07:48;29.90;87.00
17986;DHT22;9118;48.122;11.546;2023-07-09T19:10:21;30.40;87.70
17986;DHT22;9118;48.122;11.546;2023-07-09T19:12:52;30.30;88.10
17986;DHT22;9118;48.122;11.546;2023-07-09T19:15:20;30.20;88.30
17986;DHT22;9118;48.122;11.546;2023-07-09T19:17:47;30.20;88.50
17986;DHT22;9118;48.122;11.546;2023-07-09T19:20:16;31.00;89.80
17986;DHT22;9118;48.122;11.546;2023-07-09T19:22:44;29.90;88.90
17986;DHT22;9118;48.122;11.546;2023-07-09T19:25:15;29.90;89.80
17986;DHT22;9118;48.122;11.546;2023-07-09T19:27:44;29.90;89.30
17986;DHT22;9118;48.122;11.546;2023-07-09T19:30:14;30.50;90.30
17986;DHT22;9118;48.122;11.546;2023-07-09T19:32:44;29.60;90.20
17986;DHT22;9118;48.122;11.546;2023-07-09T19:35:15;29.40;90.30
17986;DHT22;9118;48.122;11.546;2023-07-09T19:37:43;29.40;90.50
17986;DHT22;9118;48.122;11.546;2023-07-09T19:40:20;28.40;90.60
17986;DHT22;9118;48.122;11.546;2023-07-09T19:45:18;28.90;90.70
17986;DHT22;9118;48.122;11.546;2023-07-09T19:47:47;29.00;91.00
17986;DHT22;9118;48.122;11.546;2023-07-09T19:50:22;28.90;91.40
17986;DHT22;9118;48.122;11.546;2023-07-09T19:52:50;29.00;91.30
17986;DHT22;9118;48.122;11.546;2023-07-09T19:55:20;28.90;91.40
17986;DHT22;9118;48.122;11.546;2023-07-09T19:57:48;28.80;91.70
17986;DHT22;9118;48.122;11.546;2023-07-09T20:00:18;28.70;91.90
17986;DHT22;9118;48.122;11.546;2023-07-09T20:02:46;28.80;91.50
17986;DHT22;9118;48.122;11.546;2023-07-09T20:05:15;28.40;92.00